createdAt,value
2023-03-14T00:01:46.248Z,1.98
2023-03-14T00:03:48.599Z,3.08
2023-03-14T00:05:50.910Z,2.47
2023-03-14T00:07:53.023Z,3.80
2023-03-14T00:09:55.281Z,2.38
2023-03-14T00:11:58.435Z,2.85
2023-03-14T00:14:01.257Z,3.20
2023-03-14T00:16:06.419Z,3.95
2023-03-14T00:18:08.794Z,2.25
2023-03-14T00:20:12.534Z,2.85
2023-03-14T00:22:14.809Z,2.03
2023-03-14T00:24:17.344Z,1.98
2023-03-14T00:26:22.300Z,3.13
2023-03-14T00:28:24.625Z,3.00
2023-03-14T00:30:26.808Z,2.17
2023-03-14T00:32:28.964Z,2.33
2023-03-14T00:34:32.499Z,3.00
2023-03-14T00:36:34.772Z,1.88
2023-03-14T00:38:38.179Z,1.90
2023-03-14T00:40:41.046Z,2.90
2023-03-14T00:42:43.265Z,2.60
2023-03-14T00:44:45.473Z,1.90
2023-03-14T00:46:47.733Z,2.13
2023-03-14T00:48:50.161Z,2.15
2023-03-14T00:50:52.385Z,2.17
2023-03-14T00:52:54.746Z,2.63
2023-03-14T00:54:57.107Z,1.95
2023-03-14T00:56:59.309Z,1.73
2023-03-14T00:59:01.647Z,2.22
2023-03-14T01:01:08.504Z,2.70
2023-03-14T01:03:11.632Z,2.45
2023-03-14T01:05:14.055Z,3.35
2023-03-14T01:07:16.859Z,1.02
2023-03-14T01:09:19.118Z,0.45
2023-03-14T01:11:24.715Z,0.60
2023-03-14T01:13:26.998Z,0.30
2023-03-14T01:15:29.196Z,0.22
2023-03-14T01:17:31.744Z,0.32
2023-03-14T01:19:34.026Z,1.50
2023-03-14T01:21:36.715Z,0.20
2023-03-14T01:23:38.851Z,0.30
2023-03-14T01:25:43.120Z,0.20
2023-03-14T01:27:47.717Z,0.25
2023-03-14T01:29:50.141Z,0.20
2023-03-14T01:31:52.334Z,0.38
2023-03-14T01:33:55.166Z,0.10
2023-03-14T01:35:57.539Z,0.30
2023-03-14T01:37:59.730Z,0.20
2023-03-14T01:40:02.160Z,0.30
2023-03-14T01:42:04.751Z,0.15
2023-03-14T01:44:07.652Z,0.20
2023-03-14T01:46:13.538Z,0.30
2023-03-14T01:48:16.213Z,0.30
2023-03-14T01:50:18.465Z,0.22
2023-03-14T01:52:26.389Z,0.28
2023-03-14T01:54:34.921Z,0.35
2023-03-14T01:56:38.251Z,0.30
2023-03-14T01:58:42.930Z,0.20
2023-03-14T02:00:45.197Z,0.30
2023-03-14T02:02:51.730Z,0.30
2023-03-14T02:04:55.522Z,0.20
2023-03-14T02:07:01.584Z,0.38
2023-03-14T02:09:05.276Z,0.40
2023-03-14T02:11:08.532Z,0.30
2023-03-14T02:13:11.596Z,0.40
2023-03-14T02:15:14.028Z,0.32
2023-03-14T02:17:18.494Z,0.50
2023-03-14T02:19:30.210Z,0.30
2023-03-14T02:21:38.439Z,0.60
2023-03-14T02:24:00.178Z,0.20
2023-03-14T02:26:10.213Z,0.20
2023-03-14T02:28:13.988Z,0.43
2023-03-14T02:30:19.505Z,0.30
2023-03-14T02:32:24.471Z,0.50
2023-03-14T02:34:27.336Z,0.57
2023-03-14T02:36:30.946Z,0.30
2023-03-14T02:38:36.915Z,0.30
2023-03-14T02:40:38.870Z,0.30
2023-03-14T02:42:40.904Z,0.20
2023-03-14T02:44:49.277Z,0.20
2023-03-14T02:46:51.636Z,0.20
2023-03-14T02:48:57.280Z,0.52
2023-03-14T02:51:01.773Z,0.40
2023-03-14T02:53:04.028Z,0.40
2023-03-14T02:55:07.180Z,0.20
2023-03-14T02:57:09.461Z,0.10
2023-03-14T02:59:11.535Z,0.13
2023-03-14T03:01:13.511Z,0.20
2023-03-14T03:03:15.859Z,0.10
2023-03-14T03:05:18.060Z,0.38
2023-03-14T03:07:20.338Z,0.22
2023-03-14T03:09:22.310Z,0.30
2023-03-14T03:11:24.389Z,0.20
2023-03-14T03:13:26.852Z,0.30
2023-03-14T03:15:29.358Z,0.10
2023-03-14T03:17:31.320Z,0.20
2023-03-14T03:19:34.748Z,0.20
2023-03-14T03:21:36.785Z,0.20
2023-03-14T03:23:38.750Z,0.20
2023-03-14T03:25:41.010Z,0.10
2023-03-14T03:27:43.119Z,0.25
2023-03-14T03:29:45.428Z,0.20
2023-03-14T03:31:47.456Z,0.22
2023-03-14T03:33:49.489Z,0.10
2023-03-14T03:35:52.093Z,0.63
2023-03-14T03:37:54.171Z,0.20
2023-03-14T03:39:56.245Z,0.35
2023-03-14T03:41:58.251Z,0.60
2023-03-14T03:44:00.356Z,0.30
2023-03-14T03:46:06.295Z,0.25
2023-03-14T03:48:08.641Z,0.40
2023-03-14T03:50:11.514Z,0.20
2023-03-14T03:52:13.622Z,0.30
2023-03-14T03:54:16.321Z,0.32
2023-03-14T03:56:18.307Z,0.60
2023-03-14T03:58:20.637Z,0.40
2023-03-14T04:00:22.914Z,0.47
2023-03-14T04:02:24.976Z,0.20
2023-03-14T04:04:27.505Z,0.38
2023-03-14T04:06:29.768Z,0.52
2023-03-14T04:08:32.147Z,0.25
2023-03-14T04:10:37.417Z,0.20
2023-03-14T04:12:39.359Z,0.60
2023-03-14T04:14:42.253Z,0.40
2023-03-14T04:16:44.313Z,0.28
2023-03-14T04:18:46.276Z,0.73
2023-03-14T04:20:54.335Z,0.30
2023-03-14T04:22:56.375Z,0.20
2023-03-14T04:24:58.349Z,0.30
2023-03-14T04:27:00.445Z,0.32
2023-03-14T04:29:02.397Z,0.30
2023-03-14T04:31:08.261Z,0.20
2023-03-14T04:33:10.421Z,0.20
2023-03-14T04:35:12.504Z,0.80
2023-03-14T04:37:14.577Z,0.47
2023-03-14T04:39:16.729Z,0.40
2023-03-14T04:41:18.735Z,0.30
2023-03-14T04:43:20.736Z,0.38
2023-03-14T04:45:22.900Z,0.50
2023-03-14T04:47:24.862Z,0.30
2023-03-14T04:49:26.822Z,0.65
2023-03-14T04:51:28.862Z,0.93
2023-03-14T04:53:32.919Z,0.32
2023-03-14T04:55:35.896Z,0.30
2023-03-14T04:57:37.847Z,0.63
2023-03-14T04:59:39.778Z,0.45
2023-03-14T05:01:42.390Z,1.33
2023-03-14T05:03:44.378Z,0.65
2023-03-14T05:05:46.891Z,0.52
2023-03-14T05:07:48.940Z,0.50
2023-03-14T05:09:50.918Z,0.60
2023-03-14T05:11:53.235Z,0.80
2023-03-14T05:13:55.299Z,0.40
2023-03-14T05:16:05.609Z,0.50
2023-03-14T05:18:07.611Z,0.30
2023-03-14T05:20:10.938Z,0.45
2023-03-14T05:22:13.311Z,0.50
2023-03-14T05:24:15.461Z,0.40
2023-03-14T05:26:18.112Z,0.40
2023-03-14T05:28:20.136Z,1.05
2023-03-14T05:30:22.936Z,0.45
2023-03-14T05:32:24.987Z,0.80
2023-03-14T05:34:27.178Z,0.93
2023-03-14T05:36:29.239Z,0.60
2023-03-14T05:38:31.243Z,0.45
2023-03-14T05:40:33.218Z,0.32
2023-03-14T05:42:35.201Z,1.00
2023-03-14T05:44:37.149Z,0.70
2023-03-14T05:46:39.255Z,0.38
2023-03-14T05:48:41.361Z,0.50
2023-03-14T05:50:43.379Z,0.95
2023-03-14T05:52:45.341Z,0.45
2023-03-14T05:54:47.327Z,0.82
2023-03-14T05:56:49.325Z,0.50
2023-03-14T05:58:51.312Z,0.38
2023-03-14T06:00:53.300Z,0.55
2023-03-14T06:02:55.318Z,0.30
2023-03-14T06:04:57.317Z,0.40
2023-03-14T06:06:59.364Z,0.77
2023-03-14T06:09:01.572Z,0.30
2023-03-14T06:11:05.259Z,0.30
2023-03-14T06:13:07.295Z,0.63
2023-03-14T06:15:09.799Z,1.20
2023-03-14T06:17:11.802Z,0.65
2023-03-14T06:19:14.220Z,0.43
2023-03-14T06:21:19.240Z,0.52
2023-03-14T06:23:21.292Z,0.50
2023-03-14T06:25:23.249Z,0.40
2023-03-14T06:27:25.314Z,0.77
2023-03-14T06:29:27.325Z,0.52
2023-03-14T06:31:29.324Z,0.30
2023-03-14T06:33:31.984Z,0.82
2023-03-14T06:35:34.080Z,0.50
2023-03-14T06:37:36.165Z,0.47
2023-03-14T06:39:39.875Z,0.60
2023-03-14T06:41:42.026Z,0.55
2023-03-14T06:43:43.985Z,0.77
2023-03-14T06:45:46.100Z,0.68
2023-03-14T06:47:48.053Z,0.52
2023-03-14T06:49:51.592Z,0.50
2023-03-14T06:51:53.751Z,0.60
2023-03-14T06:53:55.761Z,0.35
2023-03-14T06:55:57.744Z,0.90
2023-03-14T06:58:00.052Z,0.47
2023-03-14T07:00:02.315Z,0.88
2023-03-14T07:02:04.472Z,0.70
2023-03-14T07:04:06.915Z,0.60
2023-03-14T07:06:09.206Z,1.00
2023-03-14T07:08:11.821Z,0.60
2023-03-14T07:10:14.214Z,0.52
2023-03-14T07:12:16.269Z,1.00
2023-03-14T07:14:19.798Z,0.65
2023-03-14T07:16:22.857Z,0.70
2023-03-14T07:18:26.005Z,1.23
2023-03-14T07:20:28.237Z,0.25
2023-03-14T07:22:30.254Z,0.88
2023-03-14T07:24:32.477Z,0.55
2023-03-14T07:26:34.513Z,0.77
2023-03-14T07:28:36.495Z,0.60
2023-03-14T07:30:39.411Z,0.50
2023-03-14T07:32:41.915Z,0.50
2023-03-14T07:34:44.440Z,0.63
2023-03-14T07:36:47.761Z,0.57
2023-03-14T07:38:52.147Z,0.63
2023-03-14T07:41:02.147Z,0.50
2023-03-14T07:43:05.074Z,0.87
2023-03-14T07:45:08.514Z,0.47
2023-03-14T07:47:12.340Z,0.50
2023-03-14T07:49:14.781Z,0.57
2023-03-14T07:51:17.000Z,0.65
2023-03-14T07:53:19.877Z,0.52
2023-03-14T07:55:22.302Z,0.40
2023-03-14T07:57:25.308Z,0.22
2023-03-14T07:59:28.423Z,0.30
2023-03-14T08:01:30.843Z,0.20
2023-03-14T08:03:33.063Z,0.47
2023-03-14T08:05:38.336Z,0.20
2023-03-14T08:07:40.500Z,0.20
2023-03-14T08:09:43.023Z,0.28
2023-03-14T08:11:45.336Z,0.10
2023-03-14T08:13:50.960Z,0.20
2023-03-14T08:15:53.306Z,0.40
2023-03-14T08:17:55.961Z,0.30
2023-03-14T08:19:58.276Z,0.25
2023-03-14T08:22:00.639Z,0.45
2023-03-14T08:24:02.967Z,0.30
2023-03-14T08:26:06.012Z,0.30
2023-03-14T08:28:08.801Z,0.40
2023-03-14T08:30:13.756Z,0.30
2023-03-14T08:32:16.220Z,0.20
2023-03-14T08:34:18.852Z,0.20
2023-03-14T08:36:23.982Z,0.30
2023-03-14T08:38:26.954Z,0.20
2023-03-14T08:40:39.648Z,0.20
2023-03-14T08:42:42.319Z,0.20
2023-03-14T08:44:50.421Z,0.20
2023-03-14T08:46:52.757Z,0.20
2023-03-14T08:48:55.094Z,0.20
2023-03-14T08:50:58.722Z,0.30
2023-03-14T08:53:02.066Z,0.22
2023-03-14T08:55:05.046Z,0.30
2023-03-14T08:57:07.794Z,0.20
2023-03-14T08:59:11.887Z,1.42
2023-03-14T09:01:14.489Z,1.00
2023-03-14T09:03:16.813Z,0.40
2023-03-14T09:05:19.405Z,0.50
2023-03-14T09:07:24.853Z,0.43
2023-03-14T09:09:56.750Z,0.50
2023-03-14T09:11:59.248Z,0.40
2023-03-14T09:14:01.795Z,0.28
2023-03-14T09:16:06.067Z,0.30
2023-03-14T09:18:08.345Z,0.40
2023-03-14T09:20:11.867Z,0.30
2023-03-14T09:22:13.998Z,0.52
2023-03-14T09:24:16.604Z,0.47
2023-03-14T09:26:18.989Z,0.57
2023-03-14T09:28:21.017Z,0.32
2023-03-14T09:30:23.490Z,0.50
2023-03-14T09:32:25.951Z,0.70
2023-03-14T09:34:28.635Z,0.60
2023-03-14T09:36:30.949Z,0.73
2023-03-14T09:38:34.231Z,0.85
2023-03-14T09:40:37.426Z,0.88
2023-03-14T09:42:43.451Z,0.70
2023-03-14T09:44:51.958Z,0.50
2023-03-14T09:46:58.564Z,1.00
2023-03-14T09:49:01.125Z,0.47
2023-03-14T09:51:12.883Z,0.63
2023-03-14T09:53:19.376Z,0.70
2023-03-14T09:55:23.500Z,0.63
2023-03-14T09:57:26.854Z,0.90
2023-03-14T09:59:31.312Z,0.75
2023-03-14T10:01:35.022Z,0.75
2023-03-14T10:03:37.347Z,1.13
2023-03-14T10:05:40.896Z,0.93
2023-03-14T10:07:42.993Z,1.02
2023-03-14T10:09:46.579Z,0.93
2023-03-14T10:11:48.834Z,0.40
2023-03-14T10:14:07.351Z,1.02
2023-03-14T10:16:09.957Z,0.82
2023-03-14T10:18:14.001Z,0.80
2023-03-14T10:20:22.365Z,0.70
2023-03-14T10:22:28.004Z,0.50
2023-03-14T10:24:32.988Z,0.57
2023-03-14T10:26:36.337Z,0.57
2023-03-14T10:28:45.139Z,0.40
2023-03-14T10:30:47.693Z,0.50
2023-03-14T10:32:49.964Z,0.38
2023-03-14T10:35:05.609Z,0.50
2023-03-14T10:37:18.779Z,0.30
2023-03-14T10:39:26.829Z,0.60
2023-03-14T10:41:34.843Z,0.40
2023-03-14T10:43:38.743Z,0.60
2023-03-14T10:45:44.507Z,0.30
2023-03-14T10:47:50.960Z,0.52
2023-03-14T10:49:53.593Z,1.83
2023-03-14T10:51:55.771Z,0.50
2023-03-14T10:54:01.359Z,1.02
2023-03-14T10:56:06.238Z,0.75
2023-03-14T10:58:20.751Z,1.23
2023-03-14T11:00:24.654Z,0.73
2023-03-14T11:02:33.613Z,0.60
2023-03-14T11:04:41.971Z,0.80
2023-03-14T11:06:50.362Z,0.82
2023-03-14T11:08:56.002Z,0.88
2023-03-14T11:11:04.326Z,0.70
2023-03-14T11:13:12.771Z,1.08
2023-03-14T11:15:19.876Z,1.02
2023-03-14T11:17:28.139Z,1.05
2023-03-14T11:19:35.839Z,1.20
2023-03-14T11:21:45.493Z,0.90
2023-03-14T11:23:53.767Z,1.00
2023-03-14T11:25:59.627Z,0.73
2023-03-14T11:28:03.502Z,0.60
2023-03-14T11:30:11.783Z,0.90
2023-03-14T11:32:20.101Z,0.68
2023-03-14T11:34:28.405Z,1.27
2023-03-14T11:36:39.365Z,0.80
2023-03-14T11:40:48.953Z,0.65
2023-03-14T11:42:59.267Z,0.70
2023-03-14T11:45:02.871Z,0.82
2023-03-14T11:47:11.600Z,0.57
2023-03-14T11:49:18.315Z,0.70
2023-03-14T11:51:27.397Z,1.40
2023-03-14T11:53:41.426Z,0.60
2023-03-14T11:55:44.546Z,0.60
2023-03-14T11:57:48.596Z,0.90
2023-03-14T11:59:54.061Z,0.40
2023-03-14T12:02:02.713Z,0.85
2023-03-14T12:04:14.480Z,0.80
2023-03-14T12:06:27.418Z,0.50
2023-03-14T12:08:32.988Z,1.00
2023-03-14T12:10:40.412Z,1.08
2023-03-14T12:12:43.500Z,1.38
2023-03-14T12:14:53.760Z,0.70
2023-03-14T12:17:00.468Z,0.90
2023-03-14T12:19:09.656Z,1.10
2023-03-14T12:21:14.661Z,0.65
2023-03-14T12:23:18.749Z,0.57
2023-03-14T12:25:22.969Z,0.50
2023-03-14T12:27:31.311Z,0.30
2023-03-14T12:29:33.705Z,1.15
2023-03-14T12:31:39.170Z,0.77
2023-03-14T12:33:43.450Z,0.60
2023-03-14T12:35:49.382Z,0.70
2023-03-14T12:37:56.904Z,0.55
2023-03-14T12:40:01.041Z,0.47
2023-03-14T12:42:10.072Z,0.55
2023-03-14T12:44:18.656Z,0.88
2023-03-14T12:46:24.567Z,0.68
2023-03-14T12:48:28.519Z,0.85
2023-03-14T12:50:41.700Z,0.40
2023-03-14T12:52:56.462Z,0.45
2023-03-14T12:55:07.902Z,0.55
2023-03-14T12:57:11.962Z,0.60
2023-03-14T12:59:23.441Z,0.45
2023-03-14T13:01:25.931Z,0.65
2023-03-14T13:03:41.007Z,0.82
2023-03-14T13:05:49.981Z,0.40
2023-03-14T13:07:55.731Z,0.60
2023-03-14T13:10:04.777Z,0.65
2023-03-14T13:12:13.172Z,0.43
2023-03-14T13:14:16.195Z,0.45
2023-03-14T13:16:22.217Z,0.47
2023-03-14T13:18:32.260Z,0.60
2023-03-14T13:20:40.408Z,0.50
2023-03-14T13:22:49.055Z,0.70
2023-03-14T13:24:51.737Z,0.85
2023-03-14T13:26:56.839Z,0.50
2023-03-14T13:28:59.775Z,0.60
2023-03-14T13:31:07.630Z,0.55
2023-03-14T13:33:16.765Z,0.32
2023-03-14T13:35:23.582Z,0.40
2023-03-14T13:37:28.231Z,0.40
2023-03-14T13:39:41.412Z,0.40
2023-03-14T13:41:44.182Z,0.40
2023-03-14T13:43:46.950Z,0.52
2023-03-14T13:45:52.690Z,0.40
2023-03-14T13:47:55.196Z,0.43
2023-03-14T13:49:57.418Z,0.60
2023-03-14T13:51:59.882Z,0.50
2023-03-14T13:54:04.563Z,0.30
2023-03-14T13:56:11.514Z,0.22
2023-03-14T13:58:23.769Z,0.80
2023-03-14T14:00:29.234Z,0.70
2023-03-14T14:02:32.845Z,0.57
2023-03-14T14:04:38.490Z,0.40
2023-03-14T14:06:49.465Z,0.50
2023-03-14T14:08:53.619Z,0.30
2023-03-14T14:11:01.899Z,0.32
2023-03-14T14:13:07.345Z,0.30
2023-03-14T14:15:17.658Z,1.10
2023-03-14T14:17:27.563Z,0.30
2023-03-14T14:19:33.858Z,0.23
2023-03-14T14:21:36.274Z,0.47
2023-03-14T14:23:39.864Z,0.50
2023-03-14T14:25:44.163Z,0.50
2023-03-14T14:27:50.812Z,0.30
2023-03-14T14:29:59.178Z,0.30
2023-03-14T14:32:06.209Z,0.60
2023-03-14T14:34:20.936Z,0.50
2023-03-14T14:36:29.190Z,0.60
2023-03-14T14:38:31.888Z,0.50
2023-03-14T14:40:34.160Z,0.50
2023-03-14T14:42:41.909Z,0.30
2023-03-14T14:44:45.983Z,0.35
2023-03-14T14:46:50.342Z,0.45
2023-03-14T14:48:59.161Z,0.68
2023-03-14T14:51:04.354Z,0.55
2023-03-14T14:53:17.153Z,0.40
2023-03-14T14:55:21.319Z,0.75
2023-03-14T14:57:28.377Z,0.95
2023-03-14T14:59:30.927Z,0.40
2023-03-14T15:01:38.536Z,0.60
2023-03-14T15:03:44.864Z,0.30
2023-03-14T15:05:47.977Z,0.65
2023-03-14T15:07:52.203Z,0.93
2023-03-14T15:09:55.256Z,0.47
2023-03-14T15:11:58.108Z,0.88
2023-03-14T15:14:00.734Z,0.30
2023-03-14T15:16:03.555Z,0.40
2023-03-14T15:18:18.190Z,0.43
2023-03-14T15:20:22.160Z,0.35
2023-03-14T15:22:25.273Z,0.52
2023-03-14T15:24:28.542Z,0.40
2023-03-14T15:26:31.518Z,0.50
2023-03-14T15:28:34.636Z,0.57
2023-03-14T15:30:38.069Z,0.35
2023-03-14T15:32:41.560Z,0.50
2023-03-14T15:34:44.333Z,0.50
2023-03-14T15:36:47.264Z,0.40
2023-03-14T15:38:50.503Z,0.43
2023-03-14T15:40:54.844Z,0.60
2023-03-14T15:42:58.314Z,0.40
2023-03-14T15:45:01.293Z,0.45
2023-03-14T15:47:03.740Z,0.40
2023-03-14T15:49:06.641Z,0.47
2023-03-14T15:51:09.546Z,0.32
2023-03-14T15:53:13.184Z,0.40
2023-03-14T15:55:16.021Z,0.52
2023-03-14T15:57:18.461Z,0.77
2023-03-14T15:59:23.315Z,0.38
2023-03-14T16:01:26.493Z,0.40
2023-03-14T16:03:30.841Z,0.45
2023-03-14T16:05:33.752Z,0.73
2023-03-14T16:07:38.026Z,0.47
2023-03-14T16:10:11.953Z,0.50
2023-03-14T16:12:14.235Z,0.65
2023-03-14T16:14:17.146Z,0.65
2023-03-14T16:16:20.723Z,0.38
2023-03-14T16:18:24.745Z,0.45
2023-03-14T16:20:31.355Z,0.40
2023-03-14T16:22:38.781Z,0.40
2023-03-14T16:24:42.406Z,0.45
2023-03-14T16:26:49.616Z,0.52
2023-03-14T16:28:52.395Z,0.55
2023-03-14T16:31:04.223Z,0.35
2023-03-14T16:33:12.605Z,0.60
2023-03-14T16:35:23.601Z,0.73
2023-03-14T16:37:28.023Z,0.35
2023-03-14T16:39:51.088Z,0.50
2023-03-14T16:41:59.254Z,0.70
2023-03-14T16:44:02.749Z,0.50
2023-03-14T16:46:07.673Z,0.50
2023-03-14T16:48:10.383Z,0.20
2023-03-14T16:50:20.253Z,0.40
2023-03-14T16:52:22.781Z,0.50
2023-03-14T16:54:25.529Z,0.50
2023-03-14T16:56:28.780Z,0.68
2023-03-14T16:58:31.779Z,0.38
2023-03-14T17:00:34.323Z,0.25
2023-03-14T17:02:38.378Z,0.50
2023-03-14T17:04:42.273Z,0.28
2023-03-14T17:06:45.948Z,0.47
2023-03-14T17:08:49.270Z,0.70
2023-03-14T17:10:52.572Z,0.55
2023-03-14T17:12:55.379Z,0.50
2023-03-14T17:15:00.172Z,0.40
2023-03-14T17:17:02.883Z,0.38
2023-03-14T17:19:06.106Z,0.50
2023-03-14T17:21:10.102Z,0.40
2023-03-14T17:23:13.213Z,0.40
2023-03-14T17:25:16.669Z,0.25
2023-03-14T17:27:21.092Z,0.50
2023-03-14T17:29:30.826Z,0.50
2023-03-14T17:31:34.234Z,0.60
2023-03-14T17:33:45.008Z,0.50
2023-03-14T17:38:02.706Z,0.20
2023-03-14T17:40:07.012Z,0.20
2023-03-14T17:42:13.830Z,0.30
2023-03-14T17:44:16.839Z,0.40
2023-03-14T17:46:19.962Z,0.40
2023-03-14T17:48:27.148Z,0.30
2023-03-14T17:50:30.313Z,0.35
2023-03-14T17:52:34.844Z,0.43
2023-03-14T17:54:37.964Z,0.20
2023-03-14T17:56:44.289Z,0.20
2023-03-14T17:58:47.208Z,0.35
2023-03-14T18:00:53.533Z,0.40
2023-03-14T18:02:58.545Z,0.50
2023-03-14T18:05:05.151Z,0.30
2023-03-14T18:07:08.189Z,0.30
2023-03-14T18:09:11.601Z,0.43
2023-03-14T18:11:14.960Z,0.40
2023-03-14T18:13:21.960Z,0.50
2023-03-14T18:15:24.686Z,0.70
2023-03-14T18:17:27.727Z,0.40
2023-03-14T18:19:30.547Z,0.47
2023-03-14T18:21:33.765Z,0.60
2023-03-14T18:23:37.038Z,0.80
2023-03-14T18:25:39.971Z,0.70
2023-03-14T18:27:43.815Z,0.40
2023-03-14T18:29:54.480Z,0.65
2023-03-14T18:31:58.755Z,0.30
2023-03-14T18:34:01.911Z,0.73
2023-03-14T18:36:07.728Z,0.60
2023-03-14T18:38:10.511Z,0.70
2023-03-14T18:40:17.540Z,0.50
2023-03-14T18:42:19.980Z,0.70
2023-03-14T18:44:22.826Z,0.63
2023-03-14T18:46:25.531Z,0.40
2023-03-14T18:48:29.721Z,0.60
2023-03-14T18:50:32.196Z,0.40
2023-03-14T18:52:34.873Z,0.73
2023-03-14T18:54:37.637Z,0.50
2023-03-14T18:56:42.162Z,0.70
2023-03-14T18:58:46.039Z,0.95
2023-03-14T19:00:50.221Z,0.45
2023-03-14T19:02:53.278Z,0.43
2023-03-14T19:04:55.632Z,1.00
2023-03-14T19:06:58.741Z,0.50
2023-03-14T19:09:02.833Z,0.70
2023-03-14T19:11:07.642Z,0.70
2023-03-14T19:13:10.182Z,0.88
2023-03-14T19:15:12.500Z,0.68
2023-03-14T19:17:15.086Z,1.00
2023-03-14T19:19:18.804Z,0.65
2023-03-14T19:21:27.200Z,0.95
2023-03-14T19:23:31.079Z,1.15
2023-03-14T19:25:33.952Z,1.02
2023-03-14T19:27:37.144Z,0.90
2023-03-14T19:29:42.466Z,1.00
2023-03-14T19:31:45.102Z,1.75
2023-03-14T19:33:48.438Z,1.83
2023-03-14T19:35:50.994Z,4.07
2023-03-14T19:37:53.244Z,2.67
2023-03-14T19:39:55.492Z,3.55
2023-03-14T19:41:59.631Z,2.33
2023-03-14T19:44:02.532Z,3.00
2023-03-14T19:46:06.217Z,2.70
2023-03-14T19:48:10.409Z,2.88
2023-03-14T19:50:13.031Z,3.22
2023-03-14T19:52:15.152Z,1.70
2023-03-14T19:54:17.408Z,1.58
2023-03-14T19:56:22.128Z,1.35
2023-03-14T19:58:25.146Z,1.10
2023-03-14T20:00:27.859Z,1.17
2023-03-14T20:02:30.262Z,1.52
2023-03-14T20:04:34.090Z,1.38
2023-03-14T20:06:36.573Z,0.93
2023-03-14T20:08:39.325Z,1.02
2023-03-14T20:10:41.779Z,1.45
2023-03-14T20:12:45.808Z,1.10
2023-03-14T20:14:48.155Z,0.75
2023-03-14T20:16:50.552Z,1.48
2023-03-14T20:18:52.948Z,1.25
2023-03-14T20:20:55.800Z,0.90
2023-03-14T20:22:58.426Z,0.70
2023-03-14T20:25:00.905Z,0.60
2023-03-14T20:27:04.648Z,0.85
2023-03-14T20:29:07.368Z,0.60
2023-03-14T20:31:09.725Z,0.60
2023-03-14T20:33:13.449Z,0.60
2023-03-14T20:35:23.726Z,0.40
2023-03-14T20:37:26.220Z,0.60
2023-03-14T20:39:28.827Z,0.50
2023-03-14T20:41:31.334Z,0.50
2023-03-14T20:43:34.549Z,0.60
2023-03-14T20:45:36.979Z,0.80
2023-03-14T20:47:39.873Z,0.63
2023-03-14T20:49:42.467Z,0.55
2023-03-14T20:51:44.634Z,0.60
2023-03-14T20:53:47.097Z,0.60
2023-03-14T20:55:50.644Z,0.60
2023-03-14T20:57:52.950Z,0.60
2023-03-14T20:59:55.434Z,0.55
2023-03-14T21:01:58.129Z,0.52
2023-03-14T21:04:00.839Z,0.40
2023-03-14T21:06:05.898Z,0.63
2023-03-14T21:08:08.313Z,0.30
2023-03-14T21:10:12.532Z,0.47
2023-03-14T21:12:15.044Z,0.43
2023-03-14T21:14:19.118Z,0.70
2023-03-14T21:16:21.686Z,0.40
2023-03-14T21:18:24.637Z,0.40
2023-03-14T21:20:27.459Z,0.68
2023-03-14T21:22:29.910Z,0.95
2023-03-14T21:24:34.709Z,0.73
2023-03-14T21:26:37.080Z,0.63
2023-03-14T21:28:39.512Z,0.57
2023-03-14T21:30:41.922Z,0.60
2023-03-14T21:32:44.282Z,0.68
2023-03-14T21:34:49.218Z,0.70
2023-03-14T21:36:52.355Z,0.80
2023-03-14T21:38:54.475Z,0.82
2023-03-14T21:40:57.950Z,0.70
2023-03-14T21:43:00.265Z,0.40
2023-03-14T21:45:02.440Z,0.50
2023-03-14T21:47:07.092Z,0.30
2023-03-14T21:49:09.324Z,0.60
2023-03-14T21:51:11.465Z,0.50
2023-03-14T21:53:13.625Z,0.40
2023-03-14T21:55:19.727Z,0.50
2023-03-14T21:57:21.873Z,0.30
2023-03-14T21:59:24.857Z,0.50
2023-03-14T22:01:27.196Z,0.60
2023-03-14T22:03:29.444Z,0.60
2023-03-14T22:05:31.575Z,1.45
2023-03-14T22:07:33.687Z,0.60
2023-03-14T22:09:36.190Z,0.60
2023-03-14T22:11:38.363Z,0.43
2023-03-14T22:13:40.802Z,0.50
2023-03-14T22:15:45.923Z,0.70
2023-03-14T22:17:48.328Z,0.68
2023-03-14T22:19:51.468Z,0.50
2023-03-14T22:21:54.177Z,0.70
2023-03-14T22:23:56.228Z,0.60
2023-03-14T22:25:58.269Z,0.65
2023-03-14T22:28:00.593Z,0.57
2023-03-14T22:30:03.461Z,0.93
2023-03-14T22:32:06.498Z,0.95
2023-03-14T22:34:09.334Z,0.40
2023-03-14T22:36:11.382Z,0.63
2023-03-14T22:38:13.446Z,0.30
2023-03-14T22:40:15.809Z,0.43
2023-03-14T22:42:18.109Z,0.88
2023-03-14T22:44:20.232Z,0.40
2023-03-14T22:46:22.327Z,0.65
2023-03-14T22:48:24.576Z,0.50
2023-03-14T22:50:26.984Z,1.45
2023-03-14T22:52:32.161Z,0.52
2023-03-14T22:54:34.453Z,0.60
2023-03-14T22:56:36.640Z,0.50
2023-03-14T22:58:39.091Z,0.38
2023-03-14T23:00:41.234Z,0.95
2023-03-14T23:02:43.297Z,0.50
2023-03-14T23:04:45.750Z,0.50
2023-03-14T23:06:47.928Z,0.50
2023-03-14T23:08:49.956Z,0.43
2023-03-14T23:10:53.604Z,0.73
2023-03-14T23:12:57.845Z,0.60
2023-03-14T23:15:00.327Z,0.40
2023-03-14T23:17:02.341Z,0.50
2023-03-14T23:19:04.412Z,0.60
2023-03-14T23:21:09.503Z,0.63
2023-03-14T23:23:13.952Z,0.50
2023-03-14T23:25:16.499Z,0.70
2023-03-14T23:27:18.668Z,0.50
2023-03-14T23:29:21.688Z,0.40
2023-03-14T23:31:23.819Z,0.60
2023-03-14T23:33:27.669Z,0.60
2023-03-14T23:35:29.899Z,0.40
2023-03-14T23:37:33.576Z,0.70
2023-03-14T23:39:35.809Z,0.35
2023-03-14T23:41:37.999Z,0.60
2023-03-14T23:43:42.010Z,0.40
2023-03-14T23:45:48.020Z,0.40
2023-03-14T23:47:50.216Z,0.80
2023-03-14T23:49:52.445Z,0.90
2023-03-14T23:51:54.628Z,0.80
2023-03-14T23:53:56.806Z,0.60
2023-03-14T23:55:59.762Z,0.47
2023-03-14T23:58:03.185Z,0.50
